Time;durP1;ratioP1;P1;durP2;ratioP2;P2;SDS_P1;SDS_P2;PMS_P1;PMS_P2;Temp;Humidity;BMP_temperature;BMP_pressure;BME280_temperature;BME280_humidity;BME280_pressure;Samples;Min_cycle;Max_cycle;Signal;HPM_P1;HPM_P2
2022/01/25 00:26:35;;;;;;;15.57;14.27;;;;;;;-1.12;73.90;100169.00;4140583;28;20204;-86
2022/01/25 00:30:58;;;;;;;14.27;13.00;;;;;;;-1.16;73.63;100168.41;4137233;28;20287;-85
2022/01/25 00:33:00;;;;;;;13.77;12.47;;;;;;;-1.19;73.60;100168.69;4143121;28;20288;-85
2022/01/25 00:35:02;;;;;;;15.23;14.00;;;;;;;-1.21;73.76;100161.75;4157149;28;20215;-86
2022/01/25 00:37:06;;;;;;;14.43;13.13;;;;;;;-1.22;73.64;100163.56;4141543;28;20238;-85
2022/01/25 00:39:07;;;;;;;16.03;14.53;;;;;;;-1.28;73.67;100164.13;4136423;28;20690;-86
2022/01/25 00:41:09;;;;;;;16.47;15.00;;;;;;;-1.27;74.15;100167.66;4123592;28;20729;-85
2022/01/25 00:43:11;;;;;;;14.47;13.17;;;;;;;-1.28;74.13;100169.50;4135753;28;20221;-85
2022/01/25 00:45:15;;;;;;;14.53;13.17;;;;;;;-1.27;74.11;100173.03;4122576;28;20242;-85
2022/01/25 00:47:30;;;;;;;16.00;12.67;;;;;;;-1.24;74.00;100170.06;4138693;28;20686;-85
2022/01/25 00:49:39;;;;;;;12.50;11.13;;;;;;;-1.25;74.12;100173.75;4138770;28;20259;-86
2022/01/25 00:55:54;;;;;;;12.97;12.00;;;;;;;-1.25;73.90;100173.75;4137697;28;20217;-85
2022/01/25 00:57:56;;;;;;;12.03;10.93;;;;;;;-1.25;73.90;100171.06;4138405;28;20272;-85
2022/01/25 00:59:57;;;;;;;13.33;12.13;;;;;;;-1.24;74.04;100168.25;4120754;28;20226;-87
2022/01/25 01:02:04;;;;;;;10.67;9.87;;;;;;;-1.24;73.70;100159.31;4136458;28;20749;-83
2022/01/25 01:04:08;;;;;;;12.27;11.17;;;;;;;-1.23;74.21;100163.72;4136807;28;20229;-86
2022/01/25 01:06:09;;;;;;;14.50;11.30;;;;;;;-1.23;74.02;100171.75;4118448;28;20206;-83
2022/01/25 01:08:11;;;;;;;12.97;11.97;;;;;;;-1.26;73.34;100166.69;4136958;28;20613;-85
2022/01/25 01:10:16;;;;;;;13.57;12.47;;;;;;;-1.29;73.77;100172.34;4138987;28;20234;-85
2022/01/25 01:15:09;;;;;;;13.80;12.53;;;;;;;-1.34;73.64;100179.94;4137589;28;20197;-85
2022/01/25 01:31:28;;;;;;;13.83;12.73;;;;;;;-1.51;73.37;100199.31;4151285;28;20315;-86
2022/01/25 01:36:04;;;;;;;13.03;11.87;;;;;;;-1.57;73.90;100194.50;4136456;28;20219;-86
2022/01/25 01:42:50;;;;;;;15.10;13.60;;;;;;;-1.66;73.61;100189.94;4141945;28;20201;-85
2022/01/25 01:45:08;;;;;;;15.20;13.90;;;;;;;-1.70;73.87;100194.72;4140246;28;20217;-84
2022/01/25 01:47:21;;;;;;;20.20;12.57;;;;;;;-1.68;74.24;100191.91;4137452;28;20217;-85
2022/01/25 01:49:25;;;;;;;15.73;14.50;;;;;;;-1.67;74.05;100198.97;4138366;28;20205;-86
2022/01/25 01:51:32;;;;;;;13.17;11.97;;;;;;;-1.67;74.06;100193.59;4139531;28;20553;-85
2022/01/25 01:53:35;;;;;;;13.33;12.20;;;;;;;-1.63;73.72;100195.00;4120797;28;20215;-86
2022/01/25 01:55:38;;;;;;;12.70;11.70;;;;;;;-1.60;73.79;100200.13;4137343;28;20205;-85
2022/01/25 01:57:41;;;;;;;13.23;12.17;;;;;;;-1.61;73.95;100204.63;4137992;28;20236;-86
2022/01/25 01:59:42;;;;;;;14.73;13.43;;;;;;;-1.59;73.97;100199.16;4137622;28;20201;-83
2022/01/25 02:01:46;;;;;;;13.40;12.30;;;;;;;-1.58;73.99;100192.78;4119936;28;20304;-85
2022/01/25 02:03:48;;;;;;;16.80;15.10;;;;;;;-1.61;73.71;100198.44;4123514;28;20206;-84
2022/01/25 02:05:50;;;;;;;16.07;13.20;;;;;;;-1.65;73.73;100202.34;4124005;28;20272;-85
2022/01/25 02:07:53;;;;;;;15.40;14.10;;;;;;;-1.67;73.74;100194.44;4129373;28;20626;-85
2022/01/25 02:09:55;;;;;;;15.97;14.57;;;;;;;-1.68;73.98;100202.63;4156085;28;21229;-86
2022/01/25 02:11:56;;;;;;;15.27;13.93;;;;;;;-1.69;73.92;100201.78;4142306;28;20843;-86
2022/01/25 02:14:03;;;;;;;15.60;14.30;;;;;;;-1.69;74.08;100195.56;4136682;28;20209;-86
2022/01/25 02:16:08;;;;;;;18.90;15.00;;;;;;;-1.71;73.67;100184.09;4132416;28;20212;-86
2022/01/25 02:22:46;;;;;;;15.30;13.97;;;;;;;-1.74;73.61;100179.00;4140406;28;20205;-85
2022/01/25 02:24:48;;;;;;;16.13;14.53;;;;;;;-1.76;73.76;100172.91;4139817;28;20204;-85
2022/01/25 02:26:54;;;;;;;14.83;13.43;;;;;;;-1.76;74.17;100175.59;4129321;28;20210;-85
2022/01/25 02:28:56;;;;;;;14.83;13.50;;;;;;;-1.75;73.98;100177.31;4144409;28;20244;-85
2022/01/25 02:30:58;;;;;;;13.40;12.30;;;;;;;-1.66;73.85;100176.50;4144464;28;20954;-85
2022/01/25 02:32:59;;;;;;;13.00;12.00;;;;;;;-1.71;73.90;100181.41;4125649;28;20217;-85
2022/01/25 02:35:02;;;;;;;12.80;11.77;;;;;;;-1.72;73.95;100172.53;4122968;28;20290;-85
2022/01/25 02:37:06;;;;;;;13.27;12.07;;;;;;;-1.68;73.99;100175.81;4140931;28;20818;-85
2022/01/25 02:39:08;;;;;;;13.23;12.10;;;;;;;-1.65;73.91;100167.47;4123954;28;20202;-84
2022/01/25 02:41:10;;;;;;;13.70;12.53;;;;;;;-1.64;74.04;100171.84;4147127;28;20300;-86
2022/01/25 02:43:15;;;;;;;12.07;11.07;;;;;;;-1.61;73.90;100166.25;4146149;28;20617;-86
2022/01/25 02:45:17;;;;;;;12.73;11.63;;;;;;;-1.59;73.95;100172.31;4144547;28;20890;-86
2022/01/25 02:49:41;;;;;;;13.53;12.30;;;;;;;-1.55;73.65;100173.75;4139282;28;20201;-86
2022/01/25 02:51:45;;;;;;;14.33;11.90;;;;;;;-1.55;73.88;100173.75;4141863;28;20210;-85
2022/01/25 02:53:47;;;;;;;15.00;12.53;;;;;;;-1.53;73.86;100171.78;4139735;28;20804;-86
2022/01/25 02:55:50;;;;;;;15.33;13.00;;;;;;;-1.52;73.88;100171.66;4122257;28;20211;-85
2022/01/25 02:57:52;;;;;;;14.53;13.37;;;;;;;-1.50;74.27;100168.81;4139610;28;20605;-86
2022/01/25 02:59:53;;;;;;;14.03;12.93;;;;;;;-1.47;74.03;100179.31;4139688;28;20692;-85
2022/01/25 03:01:55;;;;;;;14.47;13.27;;;;;;;-1.50;74.02;100174.19;4155773;28;20211;-85
2022/01/25 03:03:57;;;;;;;17.27;15.53;;;;;;;-1.58;75.17;100176.69;4138469;28;20289;-86
2022/01/25 03:05:59;;;;;;;17.13;15.40;;;;;;;-1.57;74.85;100173.03;4144147;28;20681;-85
2022/01/25 03:08:00;;;;;;;15.17;13.80;;;;;;;-1.52;74.91;100181.53;4123434;28;20257;-86
2022/01/25 03:10:03;;;;;;;23.37;14.83;;;;;;;-1.50;74.67;100174.19;4146093;28;20241;-86
2022/01/25 03:12:07;;;;;;;19.93;15.37;;;;;;;-1.48;75.10;100172.25;4141379;28;20211;-85
2022/01/25 03:14:11;;;;;;;17.20;15.40;;;;;;;-1.44;74.91;100168.28;4144049;28;20300;-85
2022/01/25 03:16:20;;;;;;;21.10;16.27;;;;;;;-1.42;74.64;100172.53;4147664;28;20205;-85
2022/01/25 03:20:51;;;;;;;21.50;17.17;;;;;;;-1.35;75.36;100172.88;4140305;28;20224;-85
2022/01/25 03:24:57;;;;;;;26.03;18.07;;;;;;;-1.30;75.22;100162.56;4139977;28;20236;-85
2022/01/25 03:26:58;;;;;;;18.93;17.07;;;;;;;-1.28;75.54;100174.03;4129557;28;20202;-85
2022/01/25 03:29:00;;;;;;;22.53;20.13;;;;;;;-1.28;75.45;100163.28;4144107;28;20208;-84
2022/01/25 03:31:02;;;;;;;20.23;18.03;;;;;;;-1.26;75.58;100166.69;4123456;28;20931;-84
2022/01/25 03:33:03;;;;;;;22.43;17.93;;;;;;;-1.26;75.43;100161.31;4123777;28;20211;-85
2022/01/25 03:35:05;;;;;;;20.37;18.23;;;;;;;-1.25;75.64;100161.19;4125541;28;20233;-86
2022/01/25 03:37:07;;;;;;;21.60;15.33;;;;;;;-1.23;75.76;100156.50;4139054;28;20230;-86
2022/01/25 03:39:08;;;;;;;35.50;19.83;;;;;;;-1.22;75.76;100162.75;4126337;28;20217;-86
2022/01/25 03:41:12;;;;;;;20.90;16.97;;;;;;;-1.23;76.18;100152.97;4120899;28;20226;-86
2022/01/25 03:43:20;;;;;;;50.47;17.43;;;;;;;-1.22;76.81;100162.75;4140868;28;20204;-85
2022/01/25 03:45:29;;;;;;;20.30;16.37;;;;;;;-1.23;76.70;100166.38;4136647;28;20214;-85
2022/01/25 03:47:43;;;;;;;21.03;14.47;;;;;;;-1.25;77.67;100163.88;4157502;28;20193;-87
2022/01/25 03:49:50;;;;;;;24.10;15.23;;;;;;;-1.17;77.58;100164.03;4157788;28;20173;-86
2022/01/25 03:51:51;;;;;;;38.63;14.40;;;;;;;-1.11;77.54;100166.19;4149626;28;20231;-86
2022/01/25 03:53:53;;;;;;;18.93;13.33;;;;;;;-1.02;77.53;100159.13;4150380;28;20193;-85
2022/01/25 03:55:55;;;;;;;15.00;13.47;;;;;;;-1.25;77.57;100163.88;4130408;28;20202;-85
2022/01/25 03:57:59;;;;;;;15.50;14.07;;;;;;;-1.25;78.01;100160.31;4154107;28;20229;-85
2022/01/25 04:00:00;;;;;;;21.03;14.97;;;;;;;-1.23;77.73;100161.03;4144528;28;20228;-85
2022/01/25 04:02:02;;;;;;;15.03;13.47;;;;;;;-1.22;77.91;100170.81;4138842;28;20636;-85
2022/01/25 04:04:09;;;;;;;13.80;12.57;;;;;;;-1.19;77.69;100168.69;4138166;28;20213;-85
2022/01/25 04:06:17;;;;;;;39.37;13.40;;;;;;;-1.17;77.47;100171.22;4121184;28;20214;-85
2022/01/25 04:08:21;;;;;;;19.53;13.70;;;;;;;-1.17;77.71;100173.91;4130275;28;20293;-85
2022/01/25 04:10:23;;;;;;;14.50;13.10;;;;;;;-1.15;78.21;100174.66;4137335;28;20237;-85
2022/01/25 04:12:27;;;;;;;16.70;15.17;;;;;;;-1.23;78.29;100174.44;4138144;28;20198;-86
2022/01/25 04:14:29;;;;;;;17.00;13.67;;;;;;;-1.23;78.70;100171.75;4140836;28;20669;-86
2022/01/25 04:16:39;;;;;;;20.33;14.03;;;;;;;-1.21;78.37;100169.81;4136353;28;20304;-86
2022/01/25 04:18:56;;;;;;;15.30;13.43;;;;;;;-1.18;78.61;100165.03;4129076;28;20253;-86
2022/01/25 04:21:25;;;;;;;26.97;14.37;;;;;;;-1.19;78.40;100163.31;4131401;28;20225;-86
2022/01/25 04:25:47;;;;;;;29.43;14.03;;;;;;;-1.15;78.18;100158.53;4140103;28;20201;-86
2022/01/25 04:27:48;;;;;;;161.53;18.13;;;;;;;-1.24;78.74;100159.31;4123232;28;20221;-85
2022/01/25 04:29:51;;;;;;;29.23;14.67;;;;;;;-1.31;79.67;100158.16;4141083;28;20206;-86
2022/01/25 04:31:53;;;;;;;34.57;15.43;;;;;;;-1.37;80.03;100156.03;4142249;28;20244;-86
2022/01/25 04:34:45;;;;;;;33.97;15.37;;;;;;;-1.32;80.05;100156.47;4123936;28;20718;-86
2022/01/25 04:36:49;;;;;;;15.63;13.77;;;;;;;-1.26;79.95;100151.44;4133062;28;20204;-87
2022/01/25 04:52:58;;;;;;;30.67;15.30;;;;;;;-1.15;79.29;100145.09;4150414;28;20257;-87
2022/01/25 04:55:18;;;;;;;14.60;12.93;;;;;;;-1.13;79.23;100143.13;4158916;28;20204;-86
2022/01/25 05:01:39;;;;;;;15.10;13.50;;;;;;;-1.06;78.98;100146.97;4138574;28;20229;-85
2022/01/25 05:04:02;;;;;;;24.20;13.00;;;;;;;-1.06;79.15;100146.97;4123569;28;20290;-84
2022/01/25 05:06:10;;;;;;;19.27;13.07;;;;;;;-1.10;79.00;100140.16;4123848;28;20206;-85
2022/01/25 05:08:27;;;;;;;24.60;15.23;;;;;;;-1.09;79.03;100147.25;4122573;28;20816;-86
2022/01/25 05:10:32;;;;;;;16.37;14.00;;;;;;;-1.07;79.28;100156.00;4126192;28;20240;-85
2022/01/25 05:12:46;;;;;;;41.77;13.03;;;;;;;-1.07;79.46;100158.69;4121393;28;20211;-85
2022/01/25 05:17:44;;;;;;;15.60;14.00;;;;;;;-0.98;79.08;100149.81;4133085;28;20237;-85
2022/01/25 05:24:14;;;;;;;25.63;13.00;;;;;;;-1.03;79.51;100152.03;4141379;28;20233;-85
2022/01/25 05:26:17;;;;;;;27.30;13.53;;;;;;;-1.12;79.64;100143.00;4124604;28;20213;-86
2022/01/25 05:28:18;;;;;;;68.47;14.57;;;;;;;-1.12;80.08;100150.19;4136826;28;20197;-86
2022/01/25 05:30:20;;;;;;;26.13;12.73;;;;;;;-1.04;79.67;100150.34;4141358;28;20225;-86
2022/01/25 05:32:21;;;;;;;100.90;15.33;;;;;;;-1.19;80.25;100151.72;4140289;28;20209;-86
2022/01/25 05:34:23;;;;;;;54.60;12.47;;;;;;;-1.12;80.25;100147.50;4140529;28;20221;-85
2022/01/25 05:36:25;;;;;;;44.87;14.07;;;;;;;-1.23;80.78;100144.91;4140812;28;20572;-85
2022/01/25 05:38:27;;;;;;;24.40;13.67;;;;;;;-1.19;80.59;100146.34;4121658;28;20702;-86
2022/01/25 05:40:57;;;;;;;15.97;13.33;;;;;;;-1.18;80.30;100146.22;4138860;28;20225;-85
2022/01/25 05:45:20;;;;;;;14.97;13.27;;;;;;;-1.12;80.54;100153.75;4141633;28;20708;-86
2022/01/25 05:47:27;;;;;;;143.10;17.67;;;;;;;-1.18;80.26;100159.66;4152172;28;20208;-85
2022/01/25 05:49:29;;;;;;;18.33;11.93;;;;;;;-1.16;80.36;100168.41;4149408;28;20179;-89
2022/01/25 05:51:30;;;;;;;18.73;13.27;;;;;;;-1.12;80.64;100169.00;4147050;28;20379;-86
2022/01/25 05:53:32;;;;;;;15.37;10.93;;;;;;;-1.06;80.34;100168.44;4161665;28;20261;-88
2022/01/25 05:55:33;;;;;;;57.30;12.73;;;;;;;-0.95;80.42;100171.03;4159121;28;20261;-89
2022/01/25 05:57:35;;;;;;;14.90;13.37;;;;;;;-0.93;80.00;100167.22;4173917;28;20217;-85
2022/01/25 05:59:37;;;;;;;15.80;11.73;;;;;;;-0.99;79.87;100169.59;4156456;28;20209;-86
2022/01/25 06:01:39;;;;;;;13.83;11.00;;;;;;;-1.01;80.01;100171.59;4153381;28;20230;-87
2022/01/25 06:03:48;;;;;;;20.07;14.10;;;;;;;-1.04;79.97;100171.84;4157624;28;20396;-87
2022/01/25 06:05:50;;;;;;;34.70;13.77;;;;;;;-1.02;79.92;100172.56;4128857;28;20313;-88
2022/01/25 06:07:59;;;;;;;12.83;10.73;;;;;;;-0.96;79.60;100170.16;4123420;28;20210;-86
2022/01/25 06:10:02;;;;;;;13.30;11.80;;;;;;;-1.04;79.91;100177.19;4139891;28;20237;-86
2022/01/25 06:12:05;;;;;;;16.07;12.57;;;;;;;-1.02;79.90;100170.72;4135808;28;20205;-87
2022/01/25 06:14:14;;;;;;;15.97;11.23;;;;;;;-0.99;79.59;100173.16;4122354;28;20210;-85
2022/01/25 06:16:20;;;;;;;13.37;11.93;;;;;;;-1.00;79.35;100173.28;4126363;28;20218;-87
2022/01/25 06:18:22;;;;;;;41.40;13.03;;;;;;;-1.01;79.13;100182.31;4121214;28;20730;-86
2022/01/25 06:20:24;;;;;;;15.43;12.60;;;;;;;-0.99;79.53;100172.28;4138903;28;20225;-86
2022/01/25 06:22:25;;;;;;;32.80;13.97;;;;;;;-0.95;79.36;100181.78;4151736;28;20216;-88
2022/01/25 06:24:27;;;;;;;33.07;12.80;;;;;;;-1.01;80.08;100182.31;4139710;28;20201;-87
2022/01/25 06:26:31;;;;;;;15.70;13.83;;;;;;;-1.01;79.77;100187.69;4140886;28;20209;-85
2022/01/25 06:28:34;;;;;;;14.73;13.17;;;;;;;-1.02;79.74;100191.38;4135479;28;20216;-87
2022/01/25 06:30:35;;;;;;;15.70;13.43;;;;;;;-0.99;79.41;100181.19;4136182;28;20985;-85
2022/01/25 06:32:42;;;;;;;24.87;11.63;;;;;;;-1.03;79.82;100190.50;4138552;28;20209;-85
2022/01/25 06:34:44;;;;;;;29.13;14.93;;;;;;;-1.09;79.94;100179.47;4138956;28;20252;-86
2022/01/25 06:36:48;;;;;;;18.77;12.97;;;;;;;-1.09;79.98;100171.41;4138961;28;20205;-86
2022/01/25 06:38:50;;;;;;;22.00;11.93;;;;;;;-1.07;79.74;100177.50;4119420;28;20222;-85
2022/01/25 06:40:52;;;;;;;37.00;14.53;;;;;;;-1.17;80.31;100165.84;4135117;28;20234;-86
2022/01/25 06:42:54;;;;;;;29.80;14.20;;;;;;;-1.16;80.09;100168.41;4134845;28;20201;-86
2022/01/25 06:44:59;;;;;;;13.50;12.10;;;;;;;-1.12;80.46;100163.63;4137639;28;20220;-85
2022/01/25 06:47:01;;;;;;;18.03;13.43;;;;;;;-1.17;80.60;100171.22;4136706;28;20205;-87
2022/01/25 06:49:03;;;;;;;20.20;13.73;;;;;;;-1.21;80.64;100159.91;4123460;28;20291;-86
2022/01/25 06:51:07;;;;;;;27.27;14.83;;;;;;;-1.17;80.71;100165.84;4139495;28;20713;-85
2022/01/25 06:53:08;;;;;;;22.90;14.43;;;;;;;-1.14;80.40;100170.97;4139666;28;20224;-87
2022/01/25 06:55:26;;;;;;;21.47;13.67;;;;;;;-1.06;80.58;100160.38;4158436;28;20222;-88
2022/01/25 06:57:31;;;;;;;18.97;14.13;;;;;;;-1.07;80.37;100162.22;4155644;28;20236;-86
2022/01/25 06:59:36;;;;;;;15.80;13.10;;;;;;;-1.03;80.41;100168.16;4153500;28;20585;-85
2022/01/25 07:01:40;;;;;;;14.33;12.83;;;;;;;-1.03;80.38;100162.78;4152823;28;20277;-86
2022/01/25 07:04:21;;;;;;;13.40;12.00;;;;;;;-0.93;80.20;100169.06;4159295;28;20660;-87
2022/01/25 07:06:22;;;;;;;15.40;11.47;;;;;;;-0.95;80.12;100166.50;4150245;28;20224;-86
2022/01/25 07:08:30;;;;;;;20.77;13.03;;;;;;;-0.92;79.83;100165.38;4153490;28;20214;-87
2022/01/25 07:11:10;;;;;;;32.30;11.90;;;;;;;-0.84;79.87;100168.22;4155726;28;20435;-88
2022/01/25 07:13:28;;;;;;;30.20;11.43;;;;;;;-0.98;79.88;100163.22;4145077;28;20252;-86
2022/01/25 07:15:30;;;;;;;16.23;12.17;;;;;;;-1.01;80.00;100171.59;4138512;28;20289;-85
2022/01/25 07:17:54;;;;;;;18.27;11.10;;;;;;;-1.00;80.06;100168.72;4167234;28;20234;-87
2022/01/25 07:20:08;;;;;;;18.87;10.80;;;;;;;-0.94;79.91;100176.25;4156748;28;20691;-85
2022/01/25 07:22:15;;;;;;;21.67;11.40;;;;;;;-0.94;80.11;100173.56;4175800;28;20204;-88
2022/01/25 07:24:27;;;;;;;17.77;11.57;;;;;;;-0.88;79.88;100182.94;4156672;28;20205;-86
2022/01/25 07:26:30;;;;;;;19.17;12.20;;;;;;;-0.88;79.82;100178.38;4162552;28;20259;-87
2022/01/25 07:28:33;;;;;;;14.90;9.90;;;;;;;-0.88;79.83;100178.38;4160024;28;20208;-89
2022/01/25 07:30:44;;;;;;;19.33;11.33;;;;;;;-0.91;80.06;100183.19;4161371;28;20225;-87
2022/01/25 07:33:07;;;;;;;15.67;11.43;;;;;;;-0.85;79.86;100177.25;4094672;29;20215;-87
2022/01/25 07:35:12;;;;;;;37.00;12.67;;;;;;;-0.87;79.91;100179.25;4079930;29;20207;-84
2022/01/25 07:37:26;;;;;;;17.00;11.03;;;;;;;-0.89;80.04;100173.19;4083062;29;20317;-86
2022/01/25 07:39:37;;;;;;;18.33;12.47;;;;;;;-0.95;80.01;100177.25;4081004;29;20300;-88
2022/01/25 07:44:27;;;;;;;15.33;10.63;;;;;;;-1.03;80.44;100162.78;4096844;28;20212;-85
2022/01/25 07:46:35;;;;;;;16.10;11.37;;;;;;;-0.98;80.70;100165.91;4089472;29;20204;-90
2022/01/25 07:51:30;;;;;;;14.13;10.93;;;;;;;-0.89;80.31;100165.13;4082393;29;20237;-85
2022/01/25 07:53:59;;;;;;;21.70;11.17;;;;;;;-0.98;80.37;100168.59;4078040;29;20212;-84
2022/01/25 07:56:01;;;;;;;18.00;9.90;;;;;;;-0.97;80.78;100167.63;4076968;29;20665;-87
2022/01/25 07:58:04;;;;;;;28.23;11.63;;;;;;;-1.11;80.83;100176.91;4095476;29;20641;-88
2022/01/25 08:00:07;;;;;;;14.23;10.43;;;;;;;-0.99;80.93;100180.34;4077456;29;20268;-85
2022/01/25 08:02:20;;;;;;;12.90;11.63;;;;;;;-1.01;81.14;100176.94;4073610;29;20645;-86
2022/01/25 08:04:26;;;;;;;18.80;11.47;;;;;;;-0.97;81.03;100178.34;4074183;29;20212;-85
2022/01/25 08:06:46;;;;;;;12.33;10.63;;;;;;;-0.93;80.79;100179.78;4089088;29;22134;-86
2022/01/25 08:09:14;;;;;;;18.37;10.03;;;;;;;-0.92;80.85;100182.34;4081562;29;20216;-87
2022/01/25 08:11:33;;;;;;;22.57;9.73;;;;;;;-0.89;80.59;100181.22;4125256;28;20235;-86
2022/01/25 08:13:50;;;;;;;16.07;9.93;;;;;;;-0.84;80.44;100176.28;4127477;28;20213;-87
2022/01/25 08:16:11;;;;;;;13.37;10.90;;;;;;;-0.95;80.89;100176.41;4144758;28;20300;-85
2022/01/25 08:18:30;;;;;;;11.60;9.97;;;;;;;-0.79;80.48;100182.09;4148335;28;20247;-87
2022/01/25 08:20:41;;;;;;;15.00;10.27;;;;;;;-0.75;80.02;100183.53;4146235;28;20332;-85
2022/01/25 08:23:04;;;;;;;24.80;10.03;;;;;;;-0.79;80.11;100176.72;4139106;28;20304;-85
2022/01/25 08:25:22;;;;;;;21.97;10.60;;;;;;;-0.79;80.21;100184.78;4134224;28;20209;-86
2022/01/25 08:27:38;;;;;;;16.20;9.87;;;;;;;-0.77;79.94;100180.97;4103180;28;20216;-86
2022/01/25 08:29:52;;;;;;;12.70;9.30;;;;;;;-0.79;79.99;100187.47;4104230;28;20209;-87
2022/01/25 08:32:07;;;;;;;18.13;9.90;;;;;;;-0.84;80.33;100187.03;4103438;28;20215;-86
2022/01/25 08:34:28;;;;;;;13.30;8.90;;;;;;;-0.76;80.11;100187.19;4091155;28;20354;-86
2022/01/25 08:36:48;;;;;;;11.47;10.23;;;;;;;-0.76;79.92;100192.53;4105376;28;20680;-86
2022/01/25 08:39:04;;;;;;;12.47;10.83;;;;;;;-0.67;80.11;100195.25;4111795;28;20241;-85
2022/01/25 08:41:13;;;;;;;24.00;10.30;;;;;;;-0.61;80.07;100183.13;4098056;28;20274;-85
2022/01/25 08:43:17;;;;;;;30.90;11.37;;;;;;;-0.60;79.93;100192.88;4100608;28;20272;-85
2022/01/25 08:45:29;;;;;;;10.53;9.50;;;;;;;-0.52;80.05;100195.72;4086243;28;20447;-88
2022/01/25 08:47:40;;;;;;;11.73;10.27;;;;;;;-0.48;79.89;100191.78;4091189;28;20279;-86
2022/01/25 08:49:48;;;;;;;16.33;10.10;;;;;;;-0.38;79.92;100187.25;4116714;28;20209;-86
2022/01/25 08:52:13;;;;;;;16.07;11.23;;;;;;;-0.34;79.62;100196.75;4103580;28;20230;-85
2022/01/25 08:54:33;;;;;;;55.90;11.40;;;;;;;-0.24;78.94;100192.19;4103707;28;20215;-88
2022/01/25 08:56:41;;;;;;;19.47;10.47;;;;;;;-0.37;79.01;100199.69;4103076;29;20235;-86
2022/01/25 08:58:59;;;;;;;11.83;10.60;;;;;;;-0.39;79.33;100199.00;4105750;28;20257;-90
2022/01/25 09:01:00;;;;;;;14.83;11.60;;;;;;;-0.40;79.26;100182.00;4122118;28;20290;-88
2022/01/25 09:03:02;;;;;;;12.87;10.90;;;;;;;-0.35;79.15;100189.66;4141845;28;20217;-90
2022/01/25 09:05:04;;;;;;;90.63;15.50;;;;;;;-0.35;79.99;100195.06;4124264;28;20193;-85
2022/01/25 09:07:06;;;;;;;13.73;10.93;;;;;;;-0.29;79.67;100187.25;4144949;28;20662;-85
2022/01/25 09:09:12;;;;;;;12.27;10.97;;;;;;;-0.21;79.73;100194.63;4164786;28;20205;-85
2022/01/25 09:11:20;;;;;;;13.77;11.67;;;;;;;-0.20;79.06;100193.63;4145334;28;20242;-85
2022/01/25 09:13:21;;;;;;;119.07;15.00;;;;;;;-0.26;79.13;100199.56;4129004;28;20209;-86
2022/01/25 09:15:23;;;;;;;13.57;10.47;;;;;;;-0.17;79.23;100201.41;4146107;28;20215;-85
2022/01/25 09:17:25;;;;;;;11.60;10.10;;;;;;;-0.33;79.41;100195.75;4131848;28;20202;-86
2022/01/25 09:19:26;;;;;;;90.20;15.93;;;;;;;-0.26;79.36;100196.88;4130585;28;20236;-86
2022/01/25 09:21:30;;;;;;;22.93;10.90;;;;;;;-0.22;79.29;100195.63;4144953;28;20243;-86
2022/01/25 09:23:34;;;;;;;37.43;11.90;;;;;;;-0.20;79.09;100201.69;4132043;28;22837;-88
2022/01/25 09:25:36;;;;;;;20.63;11.27;;;;;;;-0.20;79.04;100196.31;4131589;28;20208;-86
2022/01/25 09:27:38;;;;;;;12.20;10.97;;;;;;;-0.20;79.05;100201.69;4148039;28;20236;-86
2022/01/25 09:29:40;;;;;;;16.23;12.57;;;;;;;-0.18;79.13;100205.09;4146543;28;20277;-87
2022/01/25 09:31:41;;;;;;;14.23;11.87;;;;;;;-0.14;79.07;100201.97;4140394;28;20221;-87
2022/01/25 09:33:43;;;;;;;16.63;13.10;;;;;;;-0.10;78.83;100208.78;4132812;28;20306;-86
2022/01/25 09:35:45;;;;;;;13.83;11.07;;;;;;;-0.23;79.05;100208.22;4144987;28;20205;-86
2022/01/25 09:37:47;;;;;;;22.83;11.53;;;;;;;-0.21;78.91;100205.38;4151360;28;20319;-88
2022/01/25 09:40:36;;;;;;;23.30;10.97;;;;;;;-0.40;79.01;100211.56;4100197;28;20260;-87
2022/01/25 09:42:38;;;;;;;128.73;12.87;;;;;;;-0.66;79.92;100206.88;4144060;28;20878;-86
2022/01/25 09:44:41;;;;;;;14.33;11.93;;;;;;;-0.63;80.50;100203.91;4130846;28;20297;-85
2022/01/25 09:46:57;;;;;;;20.57;10.43;;;;;;;-0.57;80.43;100208.72;4123268;28;20304;-86
2022/01/25 09:49:04;;;;;;;43.07;12.97;;;;;;;-0.52;80.13;100203.78;4124101;28;20242;-85
2022/01/25 09:51:12;;;;;;;90.80;15.73;;;;;;;-0.62;80.25;100211.00;4148766;28;20239;-87
2022/01/25 09:53:14;;;;;;;14.00;12.30;;;;;;;-0.42;80.27;100212.72;4134423;28;20213;-86
2022/01/25 09:55:18;;;;;;;35.30;14.20;;;;;;;-0.54;80.72;100213.84;4143678;28;20209;-86
2022/01/25 09:57:22;;;;;;;33.07;13.03;;;;;;;-0.43;80.69;100214.56;4127251;28;20300;-85
2022/01/25 09:59:26;;;;;;;63.80;16.00;;;;;;;-0.42;80.28;100218.09;4126769;28;20234;-85
2022/01/25 10:01:29;;;;;;;17.67;15.00;;;;;;;-0.30;80.19;100211.59;4145048;28;20305;-86
2022/01/25 10:03:39;;;;;;;15.37;12.70;;;;;;;-0.18;80.38;100215.84;4146714;28;20205;-86
2022/01/25 10:05:44;;;;;;;16.80;13.00;;;;;;;-0.14;80.03;100211.91;4146048;28;20209;-87
2022/01/25 10:08:01;;;;;;;16.97;12.73;;;;;;;-0.08;79.94;100221.09;4149895;28;21549;-87
2022/01/25 10:10:03;;;;;;;12.13;9.67;;;;;;;0.02;79.72;100226.50;4149872;28;20704;-86
2022/01/25 10:12:19;;;;;;;24.43;12.50;;;;;;;0.01;79.79;100228.31;4161354;28;20247;-85
2022/01/25 10:14:23;;;;;;;15.97;10.97;;;;;;;0.06;79.86;100220.69;4137457;28;20301;-86
2022/01/25 10:16:34;;;;;;;13.00;11.10;;;;;;;0.11;79.73;100223.78;4155425;28;20289;-86
2022/01/25 10:18:41;;;;;;;11.13;9.93;;;;;;;0.19;79.83;100223.06;4168138;28;20264;-85
2022/01/25 10:20:45;;;;;;;55.37;11.20;;;;;;;-0.20;79.76;100228.59;4149081;28;20592;-85
2022/01/25 10:22:47;;;;;;;12.68;11.30;;;;;;;-0.08;79.57;100222.09;4125759;28;20206;-86
2022/01/25 10:24:49;;;;;;;111.87;14.23;;;;;;;-0.23;79.76;100224.34;4170360;28;20571;-86
2022/01/25 10:27:06;;;;;;;22.67;14.10;;;;;;;-0.13;80.19;100221.66;4156766;28;20190;-88
2022/01/25 10:29:14;;;;;;;16.37;13.00;;;;;;;-0.06;80.08;100215.59;4151781;28;20197;-87
2022/01/25 10:31:19;;;;;;;13.17;11.17;;;;;;;0.03;80.13;100220.97;4128420;28;20308;-86
2022/01/25 10:33:43;;;;;;;28.43;12.33;;;;;;;0.16;79.36;100223.34;4141493;28;20202;-86
2022/01/25 10:36:16;;;;;;;14.00;12.57;;;;;;;-0.05;79.49;100228.88;4139725;28;20205;-86
2022/01/25 10:38:27;;;;;;;14.40;12.90;;;;;;;0.07;79.62;100227.75;4140868;28;20210;-86
2022/01/25 10:40:37;;;;;;;30.17;14.07;;;;;;;0.02;80.07;100227.31;4141575;28;20703;-85
2022/01/25 10:42:41;;;;;;;21.67;14.67;;;;;;;0.11;79.86;100228.31;4147158;28;20247;-85
2022/01/25 10:44:46;;;;;;;48.63;15.37;;;;;;;0.15;79.59;100222.50;4147441;28;20807;-86
2022/01/25 10:46:48;;;;;;;27.17;14.23;;;;;;;0.19;79.47;100221.22;4157558;28;20209;-85
2022/01/25 10:48:52;;;;;;;39.87;14.73;;;;;;;0.24;79.57;100226.19;4143002;28;20285;-86
2022/01/25 10:51:03;;;;;;;77.83;16.20;;;;;;;0.19;79.66;100236.53;4141019;28;20225;-86
2022/01/25 10:53:12;;;;;;;15.47;13.20;;;;;;;0.26;79.42;100227.75;4147342;28;20204;-86
2022/01/25 10:55:46;;;;;;;62.43;13.47;;;;;;;0.38;79.41;100215.81;4155998;28;20247;-87
2022/01/25 10:57:57;;;;;;;22.77;13.67;;;;;;;0.43;79.17;100224.34;4136095;28;20704;-86
2022/01/25 11:00:07;;;;;;;37.77;15.57;;;;;;;0.42;79.24;100219.91;4138757;28;20253;-86
2022/01/25 11:02:09;;;;;;;27.92;13.27;;;;;;;0.41;79.16;100214.69;4144512;28;20879;-85
2022/01/25 11:04:14;;;;;;;15.70;13.93;;;;;;;0.50;78.90;100213.81;4145893;28;20217;-85
2022/01/25 11:06:19;;;;;;;75.78;15.02;;;;;;;0.45;78.95;100211.56;4130053;28;20313;-86
2022/01/25 11:08:22;;;;;;;17.55;15.32;;;;;;;0.46;78.88;100218.66;4124824;28;20301;-86
2022/01/25 11:10:23;;;;;;;14.13;12.73;;;;;;;0.52;78.43;100218.06;4140693;28;20234;-85
2022/01/25 11:12:28;;;;;;;17.07;15.47;;;;;;;0.52;78.65;100222.59;4127524;28;20261;-87
2022/01/25 11:14:56;;;;;;;31.38;14.27;;;;;;;0.47;78.52;100220.34;4143478;28;20308;-85
2022/01/25 11:16:58;;;;;;;26.25;13.63;;;;;;;0.41;78.48;100215.53;4133070;28;20206;-85
2022/01/25 11:19:00;;;;;;;45.15;14.85;;;;;;;0.43;78.31;100213.56;4125497;28;20226;-85
2022/01/25 11:21:06;;;;;;;14.82;13.32;;;;;;;0.41;78.21;100209.31;4136224;28;20254;-85